Time;durP1;ratioP1;P1;durP2;ratioP2;P2;SDS_P1;SDS_P2;PMS_P1;PMS_P2;Temp;Humidity;BMP_temperature;BMP_pressure;BME280_temperature;BME280_humidity;BME280_pressure;Samples;Min_cycle;Max_cycle;Signal;HPM_P1;HPM_P2
2022/10/05 00:00:58;;;;;;;9.43;2.13;;;;;;;;;;5089228;28;20166;-66
2022/10/05 00:03:37;;;;;;;9.48;2.10;;;;;;;;;;5088665;28;20131;-70
2022/10/05 00:06:04;;;;;;;12.32;2.40;;;;;;;;;;5088558;28;20405;-69
2022/10/05 00:08:32;;;;;;;4.05;1.90;;;;;;;;;;5088094;28;20044;-66
2022/10/05 00:10:59;;;;;;;4.13;1.73;;;;;;;;;;5084076;28;20048;-68
2022/10/05 00:13:29;;;;;;;4.22;1.80;;;;;;;;;;5086649;28;20055;-65
2022/10/05 00:16:17;;;;;;;4.82;2.05;;;;;;;;;;5085997;28;20374;-67
2022/10/05 00:18:51;;;;;;;4.75;2.00;;;;;;;;;;5088581;28;20052;-68
2022/10/05 00:21:25;;;;;;;3.40;1.90;;;;;;;;;;5088927;28;20078;-64
2022/10/05 00:23:54;;;;;;;3.80;1.70;;;;;;;;;;5087199;28;20052;-67
2022/10/05 00:26:26;;;;;;;3.72;1.80;;;;;;;;;;5085693;28;20492;-66
2022/10/05 00:28:52;;;;;;;3.85;1.75;;;;;;;;;;5084861;28;20542;-70
2022/10/05 00:31:29;;;;;;;5.25;2.10;;;;;;;;;;5088310;28;20120;-68
2022/10/05 00:33:56;;;;;;;3.92;2.10;;;;;;;;;;5080452;28;20070;-63
2022/10/05 00:36:22;;;;;;;6.13;1.85;;;;;;;;;;5085121;28;20039;-67
2022/10/05 00:38:48;;;;;;;4.80;1.80;;;;;;;;;;5083899;28;20413;-66
2022/10/05 00:41:20;;;;;;;3.17;1.70;;;;;;;;;;5086454;28;20044;-64
2022/10/05 00:43:56;;;;;;;7.95;1.92;;;;;;;;;;5084457;28;20051;-64
2022/10/05 00:46:29;;;;;;;4.13;1.45;;;;;;;;;;5084467;28;20118;-66
2022/10/05 00:49:14;;;;;;;6.07;1.70;;;;;;;;;;5078361;28;20041;-64
2022/10/05 00:51:48;;;;;;;5.18;1.60;;;;;;;;;;5076519;28;20116;-66
2022/10/05 00:54:23;;;;;;;4.90;1.95;;;;;;;;;;5085694;28;21431;-65
2022/10/05 00:56:51;;;;;;;;;;;;;;;;;;5089000;28;20044;-65
2022/10/05 00:59:38;;;;;;;5.07;1.52;;;;;;;;;;5086454;28;20293;-66
2022/10/05 01:02:32;;;;;;;4.93;1.60;;;;;;;;;;5090953;28;20291;-67
2022/10/05 01:05:01;;;;;;;3.28;1.70;;;;;;;;;;5089301;28;20063;-65
2022/10/05 01:07:26;;;;;;;3.17;1.73;;;;;;;;;;5090359;28;20085;-64
2022/10/05 01:09:58;;;;;;;3.90;1.67;;;;;;;;;;5087785;28;20044;-63
2022/10/05 01:12:27;;;;;;;2.72;1.50;;;;;;;;;;5089982;28;20547;-66
2022/10/05 01:15:19;;;;;;;8.82;1.73;;;;;;;;;;5089805;28;20048;-66
2022/10/05 01:18:09;;;;;;;4.88;1.63;;;;;;;;;;5080434;28;20453;-63
2022/10/05 01:20:41;;;;;;;3.53;1.67;;;;;;;;;;5089175;28;20477;-64
2022/10/05 01:23:12;;;;;;;4.32;1.85;;;;;;;;;;5089400;28;20412;-63
2022/10/05 01:25:47;;;;;;;2.92;1.50;;;;;;;;;;5090319;28;20044;-66
2022/10/05 01:28:17;;;;;;;6.20;1.60;;;;;;;;;;5089273;28;20050;-64
2022/10/05 01:30:59;;;;;;;10.10;1.50;;;;;;;;;;5090136;28;20521;-69
2022/10/05 01:33:42;;;;;;;5.65;2.08;;;;;;;;;;5085221;28;20032;-66
2022/10/05 01:36:36;;;;;;;5.15;1.90;;;;;;;;;;5091236;28;20040;-65
2022/10/05 01:39:14;;;;;;;5.78;1.90;;;;;;;;;;5091398;28;20048;-67
2022/10/05 01:41:56;;;;;;;5.40;1.85;;;;;;;;;;5079890;28;20087;-67
2022/10/05 01:45:06;;;;;;;5.75;1.92;;;;;;;;;;5090797;28;20078;-64
2022/10/05 01:47:43;;;;;;;8.57;1.90;;;;;;;;;;5090620;28;20059;-64
2022/10/05 01:50:32;;;;;;;2.65;1.60;;;;;;;;;;5085911;28;20245;-67
2022/10/05 01:53:11;;;;;;;8.32;1.90;;;;;;;;;;5091207;28;20451;-63
2022/10/05 01:55:40;;;;;;;6.95;2.08;;;;;;;;;;5086182;28;20040;-65
2022/10/05 01:58:26;;;;;;;5.88;1.90;;;;;;;;;;5092177;28;20048;-66
2022/10/05 02:00:58;;;;;;;4.50;1.90;;;;;;;;;;5089824;28;20508;-64
2022/10/05 02:03:30;;;;;;;4.75;1.70;;;;;;;;;;5089546;28;20131;-66
2022/10/05 02:06:20;;;;;;;5.43;1.80;;;;;;;;;;5086602;28;20044;-64
2022/10/05 02:08:59;;;;;;;4.30;1.67;;;;;;;;;;5088025;28;20044;-64
2022/10/05 02:11:25;;;;;;;3.20;1.83;;;;;;;;;;5085998;28;20436;-65
2022/10/05 02:13:58;;;;;;;4.93;1.70;;;;;;;;;;5086183;28;20050;-66
2022/10/05 02:16:36;;;;;;;6.05;1.73;;;;;;;;;;5088268;28;20504;-64
2022/10/05 02:19:16;;;;;;;4.60;1.52;;;;;;;;;;5087800;28;20674;-70
2022/10/05 02:21:47;;;;;;;2.45;1.50;;;;;;;;;;5087412;28;20048;-68
2022/10/05 02:24:22;;;;;;;2.55;1.58;;;;;;;;;;5085967;28;20424;-65
2022/10/05 02:26:51;;;;;;;5.15;1.88;;;;;;;;;;5078935;28;20519;-65
2022/10/05 02:29:21;;;;;;;6.13;1.70;;;;;;;;;;5087088;28;20043;-65
2022/10/05 02:31:56;;;;;;;3.67;1.70;;;;;;;;;;5087641;28;20054;-65
2022/10/05 02:34:28;;;;;;;5.60;1.67;;;;;;;;;;5084149;28;20044;-65
2022/10/05 02:37:13;;;;;;;4.75;1.90;;;;;;;;;;5090444;28;20126;-63
2022/10/05 02:40:00;;;;;;;3.30;1.70;;;;;;;;;;5089596;28;20044;-63
2022/10/05 02:42:32;;;;;;;2.85;1.67;;;;;;;;;;5089538;28;20489;-65
2022/10/05 02:45:21;;;;;;;7.63;1.60;;;;;;;;;;5090686;28;20082;-65
2022/10/05 02:48:17;;;;;;;2.40;1.40;;;;;;;;;;5090824;28;20116;-64
2022/10/05 02:50:55;;;;;;;2.50;1.58;;;;;;;;;;5087571;28;20052;-65
2022/10/05 02:53:39;;;;;;;5.68;1.60;;;;;;;;;;5084446;28;20056;-64
2022/10/05 02:56:23;;;;;;;3.03;1.40;;;;;;;;;;5089746;28;20105;-64
2022/10/05 02:58:57;;;;;;;3.38;1.35;;;;;;;;;;5086954;28;20039;-66
2022/10/05 03:01:30;;;;;;;5.35;1.40;;;;;;;;;;5086841;28;20055;-64
2022/10/05 03:03:56;;;;;;;4.57;1.85;;;;;;;;;;5084195;28;20048;-65
2022/10/05 03:06:26;;;;;;;4.97;1.42;;;;;;;;;;5088398;28;20378;-64
2022/10/05 03:09:05;;;;;;;6.30;1.40;;;;;;;;;;5085551;28;20528;-66
2022/10/05 03:11:52;;;;;;;4.60;1.40;;;;;;;;;;5083494;28;20248;-64
2022/10/05 03:14:45;;;;;;;4.07;1.40;;;;;;;;;;5089726;28;20040;-65
2022/10/05 03:17:21;;;;;;;7.57;1.40;;;;;;;;;;5060618;28;20071;-63
2022/10/05 03:20:08;;;;;;;3.78;1.60;;;;;;;;;;5089856;28;20092;-66
2022/10/05 03:22:48;;;;;;;2.83;1.40;;;;;;;;;;5085526;28;20079;-68
2022/10/05 03:25:39;;;;;;;4.70;1.48;;;;;;;;;;5090179;28;20125;-65
2022/10/05 03:28:08;;;;;;;5.85;1.45;;;;;;;;;;5088907;28;20493;-63
2022/10/05 03:30:49;;;;;;;3.70;1.35;;;;;;;;;;5089591;28;20052;-64
2022/10/05 03:33:44;;;;;;;2.63;1.35;;;;;;;;;;5086222;28;20044;-63
2022/10/05 03:36:14;;;;;;;;;;;;;;;;;;5078073;28;20504;-67
2022/10/05 03:38:48;;;;;;;6.63;1.35;;;;;;;;;;5087158;28;19920;-64
2022/10/05 03:41:50;;;;;;;2.47;1.10;;;;;;;;;;5085627;28;20043;-63
2022/10/05 03:44:54;;;;;;;4.50;1.45;;;;;;;;;;5084445;28;20044;-64
2022/10/05 03:47:28;;;;;;;3.70;1.50;;;;;;;;;;5081148;28;20525;-67
2022/10/05 03:50:05;;;;;;;3.92;1.30;;;;;;;;;;5086630;28;20577;-68
2022/10/05 03:52:47;;;;;;;5.22;1.60;;;;;;;;;;5086626;28;20058;-66
2022/10/05 03:55:23;;;;;;;4.75;1.60;;;;;;;;;;5088286;28;20048;-63
2022/10/05 03:57:51;;;;;;;4.60;1.40;;;;;;;;;;5086402;28;20050;-65
2022/10/05 04:00:24;;;;;;;5.55;1.52;;;;;;;;;;5083562;28;20127;-64
2022/10/05 04:03:17;;;;;;;3.17;1.47;;;;;;;;;;5085594;28;20064;-64
2022/10/05 04:05:49;;;;;;;3.20;1.50;;;;;;;;;;5086938;28;20289;-65
2022/10/05 04:09:20;;;;;;;5.53;1.90;;;;;;;;;;5089765;28;20128;-65
2022/10/05 04:11:51;;;;;;;6.72;1.67;;;;;;;;;;5042908;28;20053;-64
2022/10/05 04:14:31;;;;;;;4.50;1.63;;;;;;;;;;5045404;28;20045;-64
2022/10/05 04:17:39;;;;;;;4.57;1.45;;;;;;;;;;5044176;28;20498;-64
2022/10/05 04:20:19;;;;;;;3.03;1.40;;;;;;;;;;5021063;28;20076;-69
2022/10/05 04:23:06;;;;;;;5.38;1.52;;;;;;;;;;5046114;28;20077;-65
2022/10/05 04:25:40;;;;;;;3.53;1.83;;;;;;;;;;5044932;28;20060;-69
2022/10/05 04:28:16;;;;;;;2.47;1.55;;;;;;;;;;5045053;28;20037;-65
2022/10/05 04:30:45;;;;;;;5.45;1.70;;;;;;;;;;5046699;28;20044;-71
2022/10/05 04:33:12;;;;;;;4.78;1.65;;;;;;;;;;5035736;28;20041;-67
2022/10/05 04:36:02;;;;;;;6.60;1.70;;;;;;;;;;5039806;28;20060;-64
2022/10/05 04:38:50;;;;;;;6.57;1.80;;;;;;;;;;5040238;28;20045;-69
2022/10/05 04:41:21;;;;;;;6.95;1.92;;;;;;;;;;5052345;28;20052;-64
2022/10/05 04:44:25;;;;;;;13.98;1.70;;;;;;;;;;5089453;28;20051;-66
2022/10/05 04:47:28;;;;;;;6.72;1.83;;;;;;;;;;5083121;28;20117;-66
2022/10/05 04:50:03;;;;;;;9.00;1.77;;;;;;;;;;5088221;28;20324;-66
2022/10/05 04:52:41;;;;;;;4.05;1.70;;;;;;;;;;5084717;28;20052;-66
2022/10/05 04:55:22;;;;;;;3.38;1.80;;;;;;;;;;5077059;28;20520;-65
2022/10/05 04:58:16;;;;;;;4.22;2.30;;;;;;;;;;5084822;28;20048;-65
2022/10/05 05:01:08;;;;;;;5.35;1.95;;;;;;;;;;5081806;28;20067;-66
2022/10/05 05:03:38;;;;;;;3.40;1.90;;;;;;;;;;5062837;28;20598;-66
2022/10/05 05:06:13;;;;;;;4.35;2.08;;;;;;;;;;5075846;28;20055;-66
2022/10/05 05:08:56;;;;;;;3.90;1.85;;;;;;;;;;5078949;28;20505;-67
2022/10/05 05:11:33;;;;;;;5.55;2.10;;;;;;;;;;5081045;28;20078;-68
2022/10/05 05:14:11;;;;;;;6.45;1.85;;;;;;;;;;5088279;28;20052;-65
2022/10/05 05:16:42;;;;;;;7.88;2.10;;;;;;;;;;5086551;28;20051;-67
2022/10/05 05:19:21;;;;;;;4.20;1.90;;;;;;;;;;5082937;28;20052;-67
2022/10/05 05:22:03;;;;;;;4.80;1.90;;;;;;;;;;5084208;28;20559;-69
2022/10/05 05:24:42;;;;;;;9.00;2.03;;;;;;;;;;5086739;28;20050;-64
2022/10/05 05:27:14;;;;;;;10.27;2.35;;;;;;;;;;5087247;28;20043;-65
2022/10/05 05:29:57;;;;;;;4.57;2.13;;;;;;;;;;5086522;28;20048;-67
2022/10/05 05:32:52;;;;;;;9.68;2.33;;;;;;;;;;5081461;28;20109;-68
2022/10/05 05:35:37;;;;;;;;;;;;;;;;;;5085743;28;20101;-67
2022/10/05 05:38:15;;;;;;;6.70;2.20;;;;;;;;;;5084006;28;20007;-68
2022/10/05 05:41:05;;;;;;;7.85;2.78;;;;;;;;;;5085241;28;20074;-64
2022/10/05 05:43:55;;;;;;;11.50;2.70;;;;;;;;;;5088378;28;20048;-66
2022/10/05 05:46:39;;;;;;;4.85;2.63;;;;;;;;;;5084544;28;20041;-66
2022/10/05 05:49:37;;;;;;;7.32;3.03;;;;;;;;;;5089441;28;20512;-66
2022/10/05 05:52:26;;;;;;;5.22;3.50;;;;;;;;;;5081933;28;20086;-67
2022/10/05 05:54:57;;;;;;;9.23;2.90;;;;;;;;;;5088619;28;20048;-65
2022/10/05 05:57:28;;;;;;;14.38;3.50;;;;;;;;;;5088692;28;20382;-64
2022/10/05 06:00:17;;;;;;;10.93;3.13;;;;;;;;;;5090518;28;20048;-66
2022/10/05 06:03:11;;;;;;;11.50;3.58;;;;;;;;;;5082624;28;20048;-66
2022/10/05 06:05:48;;;;;;;12.68;3.63;;;;;;;;;;5087277;28;20116;-69
2022/10/05 06:08:31;;;;;;;10.05;3.60;;;;;;;;;;5087198;28;20123;-65
2022/10/05 06:11:21;;;;;;;9.43;3.53;;;;;;;;;;5089372;28;20040;-66
2022/10/05 06:13:48;;;;;;;8.13;3.65;;;;;;;;;;5076229;28;20075;-71
2022/10/05 06:16:14;;;;;;;11.88;4.03;;;;;;;;;;5081471;28;20079;-67
2022/10/05 06:18:43;;;;;;;6.10;3.20;;;;;;;;;;5090950;28;20083;-67
2022/10/05 06:21:15;;;;;;;10.48;3.20;;;;;;;;;;5089880;28;20044;-67
2022/10/05 06:23:53;;;;;;;17.65;3.78;;;;;;;;;;5086319;28;20055;-66
2022/10/05 06:26:38;;;;;;;13.07;3.95;;;;;;;;;;5091257;28;20294;-65
2022/10/05 06:29:10;;;;;;;14.80;3.70;;;;;;;;;;5090355;28;20047;-69
2022/10/05 06:32:00;;;;;;;12.82;4.10;;;;;;;;;;5090333;28;20050;-70
2022/10/05 06:34:32;;;;;;;14.45;4.40;;;;;;;;;;5089899;28;20131;-66
2022/10/05 06:37:00;;;;;;;11.77;4.50;;;;;;;;;;5091798;28;20122;-65
2022/10/05 06:39:48;;;;;;;8.90;4.18;;;;;;;;;;5085239;28;20753;-69
2022/10/05 06:42:35;;;;;;;14.50;4.32;;;;;;;;;;5086586;28;20059;-70
2022/10/05 06:45:13;;;;;;;10.30;4.00;;;;;;;;;;5089418;28;20044;-65
2022/10/05 06:48:14;;;;;;;12.52;3.85;;;;;;;;;;5089506;28;20132;-64
2022/10/05 06:50:53;;;;;;;9.30;4.55;;;;;;;;;;5066306;28;20054;-67
2022/10/05 06:53:38;;;;;;;11.13;4.28;;;;;;;;;;5083548;28;20047;-68
2022/10/05 06:56:43;;;;;;;10.52;4.78;;;;;;;;;;5090792;28;20055;-65
2022/10/05 06:59:35;;;;;;;18.10;5.43;;;;;;;;;;5055763;28;20405;-65
2022/10/05 07:02:36;;;;;;;18.77;4.78;;;;;;;;;;5081320;28;20085;-65
2022/10/05 07:05:02;;;;;;;11.30;3.83;;;;;;;;;;5065018;28;20041;-70
2022/10/05 07:07:31;;;;;;;22.20;4.40;;;;;;;;;;5088115;28;20040;-67
2022/10/05 07:10:52;;;;;;;14.95;4.22;;;;;;;;;;5087153;28;20124;-65
2022/10/05 07:13:57;;;;;;;21.83;4.30;;;;;;;;;;5037901;28;20049;-67
2022/10/05 07:16:41;;;;;;;12.57;3.92;;;;;;;;;;5040356;28;20107;-66
2022/10/05 07:19:13;;;;;;;;;;;;;;;;;;5044414;28;20090;-67
2022/10/05 07:21:50;;;;;;;18.58;5.03;;;;;;;;;;5045389;28;19921;-65
2022/10/05 07:24:43;;;;;;;11.30;4.25;;;;;;;;;;5042294;28;20128;-68
2022/10/05 07:27:09;;;;;;;15.32;4.72;;;;;;;;;;5045519;28;20451;-65
2022/10/05 07:29:52;;;;;;;15.95;4.35;;;;;;;;;;5045127;28;20053;-65
2022/10/05 07:32:46;;;;;;;12.45;4.55;;;;;;;;;;5043038;28;20128;-65
2022/10/05 07:38:26;;;;;;;13.65;5.05;;;;;;;;;;5043847;28;20856;-66
2022/10/05 07:41:03;;;;;;;15.20;4.82;;;;;;;;;;5045378;28;20049;-69
2022/10/05 07:43:32;;;;;;;12.88;4.47;;;;;;;;;;5043021;28;20107;-64
2022/10/05 07:46:20;;;;;;;14.75;4.70;;;;;;;;;;5042919;28;20056;-66
2022/10/05 07:48:58;;;;;;;13.65;4.88;;;;;;;;;;5044365;28;20063;-69
2022/10/05 07:51:49;;;;;;;11.70;4.35;;;;;;;;;;5087004;28;20083;-64
2022/10/05 07:54:49;;;;;;;12.35;4.53;;;;;;;;;;5086782;28;20082;-66
2022/10/05 07:57:15;;;;;;;13.55;4.38;;;;;;;;;;5081813;28;20498;-69
2022/10/05 07:59:47;;;;;;;15.02;4.20;;;;;;;;;;5084288;28;20092;-64
2022/10/05 08:02:27;;;;;;;9.30;3.95;;;;;;;;;;5085475;28;20040;-65
2022/10/05 08:05:26;;;;;;;11.63;4.03;;;;;;;;;;5082232;28;20048;-66
2022/10/05 08:07:59;;;;;;;13.70;4.78;;;;;;;;;;5077631;28;20048;-66
2022/10/05 08:10:30;;;;;;;9.60;3.77;;;;;;;;;;5080976;28;20123;-69
2022/10/05 08:13:00;;;;;;;10.38;4.03;;;;;;;;;;5080029;28;20312;-65
2022/10/05 08:15:38;;;;;;;6.38;4.10;;;;;;;;;;5081128;28;20043;-67
2022/10/05 08:18:17;;;;;;;17.25;4.05;;;;;;;;;;5082854;28;20064;-64
2022/10/05 08:20:54;;;;;;;10.77;4.35;;;;;;;;;;5082693;28;20063;-67
2022/10/05 08:23:37;;;;;;;18.67;3.75;;;;;;;;;;5086478;28;20074;-66
2022/10/05 08:26:34;;;;;;;8.52;4.13;;;;;;;;;;5082415;28;20052;-65
2022/10/05 08:29:18;;;;;;;15.13;4.60;;;;;;;;;;5078321;28;20613;-64
2022/10/05 08:31:48;;;;;;;9.90;4.53;;;;;;;;;;5082728;28;20039;-64
2022/10/05 08:34:16;;;;;;;12.68;4.22;;;;;;;;;;5093126;28;20126;-67
2022/10/05 08:37:05;;;;;;;12.45;4.13;;;;;;;;;;5088253;28;20043;-63
2022/10/05 08:40:13;;;;;;;8.80;4.00;;;;;;;;;;5084861;28;20489;-64
2022/10/05 08:42:44;;;;;;;9.52;4.25;;;;;;;;;;5085287;28;20070;-69
2022/10/05 08:45:34;;;;;;;12.60;5.07;;;;;;;;;;5087197;28;20093;-70
2022/10/05 08:48:19;;;;;;;7.93;4.60;;;;;;;;;;5087994;28;20091;-65
2022/10/05 08:51:11;;;;;;;8.85;4.78;;;;;;;;;;5087048;28;20130;-62
2022/10/05 08:54:00;;;;;;;11.40;4.78;;;;;;;;;;5085504;28;20055;-67
2022/10/05 08:56:29;;;;;;;8.73;4.22;;;;;;;;;;5075122;28;20048;-66
2022/10/05 08:59:10;;;;;;;7.10;4.35;;;;;;;;;;5084952;28;20538;-67
2022/10/05 09:01:52;;;;;;;10.57;3.90;;;;;;;;;;5078502;28;20440;-71
2022/10/05 09:04:50;;;;;;;9.02;4.00;;;;;;;;;;5087280;28;20477;-64
2022/10/05 09:07:25;;;;;;;9.50;3.67;;;;;;;;;;5088890;28;20040;-70
2022/10/05 09:10:03;;;;;;;9.23;3.80;;;;;;;;;;5087954;28;20044;-65
2022/10/05 09:12:36;;;;;;;11.88;3.65;;;;;;;;;;5086828;28;20068;-66
2022/10/05 09:15:18;;;;;;;10.20;3.65;;;;;;;;;;5087041;28;20132;-65
2022/10/05 09:17:48;;;;;;;10.25;3.60;;;;;;;;;;5085668;28;20048;-64
2022/10/05 09:20:35;;;;;;;9.13;4.10;;;;;;;;;;5085917;28;20143;-65
2022/10/05 09:23:14;;;;;;;8.40;3.90;;;;;;;;;;5088844;28;20063;-71
2022/10/05 09:25:54;;;;;;;7.88;3.78;;;;;;;;;;5089853;28;20048;-65
2022/10/05 09:29:02;;;;;;;7.63;3.00;;;;;;;;;;5090208;28;20040;-65
2022/10/05 09:31:58;;;;;;;14.15;3.78;;;;;;;;;;5089857;28;20036;-71
2022/10/05 09:34:40;;;;;;;21.42;3.92;;;;;;;;;;5089278;28;20054;-65
2022/10/05 09:37:22;;;;;;;8.73;2.95;;;;;;;;;;5090082;28;20076;-63
2022/10/05 09:40:10;;;;;;;6.13;2.75;;;;;;;;;;5088602;28;20062;-65
2022/10/05 09:43:17;;;;;;;6.65;3.10;;;;;;;;;;5089547;28;20127;-65
2022/10/05 09:46:08;;;;;;;9.20;3.42;;;;;;;;;;5081489;28;20353;-64
2022/10/05 09:48:55;;;;;;;5.70;2.13;;;;;;;;;;5077018;28;20044;-69
2022/10/05 09:51:57;;;;;;;9.27;2.40;;;;;;;;;;5087771;28;20413;-69
2022/10/05 09:54:32;;;;;;;4.72;1.90;;;;;;;;;;5006140;28;20064;-66
2022/10/05 09:57:13;;;;;;;3.67;1.90;;;;;;;;;;5006983;28;20384;-64
2022/10/05 10:00:04;;;;;;;6.57;1.90;;;;;;;;;;5006556;28;20116;-72
2022/10/05 10:03:08;;;;;;;7.00;2.50;;;;;;;;;;5006552;28;20081;-72
2022/10/05 10:06:11;;;;;;;6.63;2.92;;;;;;;;;;5006777;28;20042;-63
2022/10/05 10:09:01;;;;;;;8.85;2.47;;;;;;;;;;4980140;28;20054;-68
2022/10/05 10:11:53;;;;;;;6.47;2.50;;;;;;;;;;5006897;28;20136;-67
2022/10/05 10:14:44;;;;;;;5.20;2.17;;;;;;;;;;4988401;28;20106;-67
2022/10/05 10:17:44;;;;;;;5.47;2.08;;;;;;;;;;5002116;28;20554;-72
2022/10/05 10:20:23;;;;;;;6.55;2.50;;;;;;;;;;4942366;29;20055;-64
2022/10/05 10:23:08;;;;;;;11.23;2.90;;;;;;;;;;4946684;29;20051;-68
2022/10/05 10:25:46;;;;;;;9.63;3.47;;;;;;;;;;4947603;29;20122;-63
2022/10/05 10:28:43;;;;;;;7.32;2.45;;;;;;;;;;4948903;29;20058;-65
2022/10/05 10:31:25;;;;;;;13.10;2.72;;;;;;;;;;4985208;28;20526;-69
2022/10/05 10:34:02;;;;;;;4.93;2.45;;;;;;;;;;5025533;28;20094;-66
2022/10/05 10:36:50;;;;;;;5.95;2.33;;;;;;;;;;5028005;28;20037;-68
2022/10/05 10:39:41;;;;;;;9.20;2.45;;;;;;;;;;5027937;28;20045;-65
2022/10/05 10:42:24;;;;;;;10.27;3.50;;;;;;;;;;5027292;28;20042;-66
2022/10/05 10:45:18;;;;;;;12.87;3.07;;;;;;;;;;5025983;28;20045;-66
2022/10/05 10:47:54;;;;;;;7.90;2.80;;;;;;;;;;5026726;28;20105;-68
2022/10/05 10:50:47;;;;;;;8.80;3.38;;;;;;;;;;5027016;28;20168;-67
2022/10/05 10:53:16;;;;;;;5.37;3.20;;;;;;;;;;5025815;28;20046;-70
2022/10/05 10:55:42;;;;;;;8.82;3.30;;;;;;;;;;5052112;28;20139;-68
2022/10/05 10:58:37;;;;;;;9.05;3.13;;;;;;;;;;5089502;28;20475;-64
2022/10/05 11:01:27;;;;;;;8.55;3.28;;;;;;;;;;5072987;28;20052;-67
2022/10/05 11:04:41;;;;;;;5.65;2.90;;;;;;;;;;5088685;28;20436;-67
2022/10/05 11:07:17;;;;;;;8.60;2.80;;;;;;;;;;5010713;28;20060;-66
2022/10/05 11:10:10;;;;;;;10.43;2.70;;;;;;;;;;5027207;28;20508;-63
2022/10/05 11:12:54;;;;;;;5.53;2.50;;;;;;;;;;5025501;28;20046;-63
2022/10/05 11:15:40;;;;;;;6.95;2.65;;;;;;;;;;5025196;28;20404;-64
2022/10/05 11:18:09;;;;;;;5.45;2.42;;;;;;;;;;5025200;28;20085;-66
2022/10/05 11:20:44;;;;;;;6.45;2.35;;;;;;;;;;5024983;28;20057;-66
2022/10/05 11:23:37;;;;;;;11.88;2.47;;;;;;;;;;5024215;28;20049;-63
2022/10/05 11:26:09;;;;;;;5.68;2.03;;;;;;;;;;5025655;28;20123;-68
2022/10/05 11:29:22;;;;;;;10.98;1.85;;;;;;;;;;5026279;28;20581;-69
2022/10/05 11:32:28;;;;;;;8.10;1.55;;;;;;;;;;5017755;28;20046;-63
2022/10/05 11:35:06;;;;;;;11.98;2.42;;;;;;;;;;5025411;28;20475;-65
2022/10/05 11:37:45;;;;;;;8.55;2.20;;;;;;;;;;5024776;28;20057;-67
2022/10/05 11:40:42;;;;;;;9.15;2.08;;;;;;;;;;5024873;28;20046;-68
2022/10/05 11:43:27;;;;;;;6.30;2.10;;;;;;;;;;5042439;28;20040;-63
2022/10/05 11:46:07;;;;;;;8.20;1.92;;;;;;;;;;5087186;28;20097;-65
2022/10/05 11:48:52;;;;;;;12.18;2.63;;;;;;;;;;5073609;28;20044;-64
2022/10/05 11:51:46;;;;;;;11.38;2.15;;;;;;;;;;5086836;28;20108;-64
2022/10/05 11:54:27;;;;;;;8.80;2.00;;;;;;;;;;5073761;28;20078;-65
2022/10/05 11:57:08;;;;;;;15.68;2.80;;;;;;;;;;5087375;28;20481;-66
2022/10/05 11:59:38;;;;;;;15.73;2.75;;;;;;;;;;5086747;28;20481;-71
2022/10/05 12:02:16;;;;;;;14.60;2.30;;;;;;;;;;5086822;28;20052;-70
2022/10/05 12:05:13;;;;;;;14.35;2.35;;;;;;;;;;5087924;28;20059;-65
2022/10/05 12:07:54;;;;;;;11.70;2.70;;;;;;;;;;5079670;28;20058;-71
2022/10/05 12:10:36;;;;;;;12.75;2.38;;;;;;;;;;5087261;28;20075;-66
2022/10/05 12:13:13;;;;;;;11.77;2.20;;;;;;;;;;5087712;28;20055;-64
2022/10/05 12:15:43;;;;;;;8.35;1.60;;;;;;;;;;5088142;28;20048;-67
2022/10/05 12:18:18;;;;;;;7.78;1.83;;;;;;;;;;5086831;28;20052;-67
2022/10/05 12:20:56;;;;;;;9.98;2.10;;;;;;;;;;5089682;28;20052;-67
2022/10/05 12:23:43;;;;;;;9.73;1.63;;;;;;;;;;5087140;28;20055;-75
2022/10/05 12:26:51;;;;;;;6.03;1.40;;;;;;;;;;5088167;28;20089;-67
2022/10/05 12:29:31;;;;;;;9.93;1.70;;;;;;;;;;5086983;28;20489;-66
2022/10/05 12:32:16;;;;;;;7.15;1.80;;;;;;;;;;5087271;28;20141;-64
2022/10/05 12:34:54;;;;;;;7.18;1.58;;;;;;;;;;5086631;28;20113;-69
2022/10/05 12:37:45;;;;;;;6.28;1.73;;;;;;;;;;5086928;28;20239;-66
2022/10/05 12:40:29;;;;;;;11.27;1.95;;;;;;;;;;5085350;28;20051;-67
2022/10/05 12:43:32;;;;;;;9.38;2.20;;;;;;;;;;5086619;28;20741;-65
2022/10/05 12:46:16;;;;;;;8.85;2.55;;;;;;;;;;5086428;28;20056;-64
2022/10/05 12:49:01;;;;;;;18.00;2.53;;;;;;;;;;5074583;28;20086;-70
2022/10/05 12:51:36;;;;;;;11.00;2.45;;;;;;;;;;5086543;28;20048;-70
2022/10/05 12:54:07;;;;;;;10.25;2.40;;;;;;;;;;5085515;28;20044;-70
2022/10/05 12:56:43;;;;;;;5.60;1.77;;;;;;;;;;5084353;28;20051;-65
2022/10/05 12:59:41;;;;;;;6.80;2.03;;;;;;;;;;5086534;28;20040;-66
2022/10/05 13:02:30;;;;;;;11.70;2.10;;;;;;;;;;5074647;28;20060;-66
2022/10/05 13:05:07;;;;;;;11.73;1.80;;;;;;;;;;5054798;28;20232;-67
2022/10/05 13:07:58;;;;;;;6.40;1.80;;;;;;;;;;5087019;28;20058;-66
2022/10/05 13:10:32;;;;;;;5.65;1.70;;;;;;;;;;5088589;28;20048;-67
2022/10/05 13:13:19;;;;;;;6.20;2.03;;;;;;;;;;5088763;28;20138;-72
2022/10/05 13:16:03;;;;;;;8.98;1.60;;;;;;;;;;5087642;28;20044;-72
2022/10/05 13:18:48;;;;;;;6.07;1.52;;;;;;;;;;5097555;28;20039;-69
2022/10/05 13:21:19;;;;;;;9.25;2.45;;;;;;;;;;5073829;28;20473;-64
2022/10/05 13:24:16;;;;;;;8.40;2.20;;;;;;;;;;5087718;28;20056;-68
2022/10/05 13:27:12;;;;;;;8.57;1.90;;;;;;;;;;5075503;28;20560;-64
2022/10/05 13:29:50;;;;;;;8.35;1.60;;;;;;;;;;5023682;28;20560;-70
2022/10/05 13:32:21;;;;;;;6.00;1.50;;;;;;;;;;5024088;28;20046;-66
2022/10/05 13:34:53;;;;;;;8.35;1.88;;;;;;;;;;5023654;28;20046;-72
2022/10/05 13:37:58;;;;;;;6.40;1.50;;;;;;;;;;5024154;28;20041;-71
2022/10/05 13:40:46;;;;;;;7.55;1.98;;;;;;;;;;5024123;28;20346;-64
2022/10/05 13:43:34;;;;;;;13.70;2.65;;;;;;;;;;5023733;28;20507;-67
2022/10/05 13:46:41;;;;;;;5.85;1.80;;;;;;;;;;5024537;28;20084;-65
2022/10/05 13:49:31;;;;;;;7.32;2.13;;;;;;;;;;5024770;28;20046;-65
2022/10/05 13:52:08;;;;;;;6.75;2.08;;;;;;;;;;5025809;28;20053;-63
2022/10/05 13:54:49;;;;;;;8.70;2.00;;;;;;;;;;5016915;28;20092;-65
2022/10/05 13:57:53;;;;;;;9.60;2.05;;;;;;;;;;5026951;28;20513;-63
2022/10/05 14:00:21;;;;;;;6.80;1.70;;;;;;;;;;5025980;28;20053;-66
2022/10/05 14:02:50;;;;;;;11.68;2.30;;;;;;;;;;5024723;28;20038;-70
2022/10/05 14:05:24;;;;;;;5.88;1.90;;;;;;;;;;5026157;28;20052;-69
2022/10/05 14:08:14;;;;;;;8.20;1.65;;;;;;;;;;5088931;28;20279;-68
2022/10/05 14:10:45;;;;;;;7.70;1.63;;;;;;;;;;5090087;28;20051;-65
2022/10/05 14:13:12;;;;;;;8.00;1.67;;;;;;;;;;5089221;28;20039;-67
2022/10/05 14:15:38;;;;;;;4.97;1.42;;;;;;;;;;5089795;28;20415;-66
2022/10/05 14:18:26;;;;;;;8.90;1.90;;;;;;;;;;5090946;28;20044;-69
2022/10/05 14:21:25;;;;;;;7.05;1.70;;;;;;;;;;5089911;28;20061;-69
2022/10/05 14:23:52;;;;;;;6.38;1.58;;;;;;;;;;5056130;28;20463;-68
2022/10/05 14:26:30;;;;;;;14.95;7.78;;;;;;;;;;5091806;28;20040;-65
2022/10/05 14:28:57;;;;;;;8.00;2.22;;;;;;;;;;5092339;28;20071;-63
2022/10/05 14:31:33;;;;;;;4.45;1.75;;;;;;;;;;5090560;28;20052;-66
2022/10/05 14:34:29;;;;;;;7.20;1.75;;;;;;;;;;5090067;28;20052;-66
2022/10/05 14:37:18;;;;;;;5.13;1.65;;;;;;;;;;5079783;28;20052;-65
2022/10/05 14:39:47;;;;;;;5.22;1.23;;;;;;;;;;5088505;28;20036;-66
2022/10/05 14:42:18;;;;;;;7.65;1.50;;;;;;;;;;5089825;28;20054;-73
2022/10/05 14:44:57;;;;;;;9.50;1.50;;;;;;;;;;5089622;28;20042;-70
2022/10/05 14:47:27;;;;;;;5.85;1.63;;;;;;;;;;5091154;28;20115;-64
2022/10/05 14:50:14;;;;;;;6.10;1.75;;;;;;;;;;5088627;28;20130;-67
2022/10/05 14:52:46;;;;;;;4.80;1.33;;;;;;;;;;5076124;28;20169;-64
2022/10/05 14:55:28;;;;;;;4.35;1.73;;;;;;;;;;5091136;28;20489;-64
2022/10/05 14:57:57;;;;;;;12.68;1.52;;;;;;;;;;5090246;28;20063;-67
2022/10/05 15:00:24;;;;;;;6.55;1.30;;;;;;;;;;5089896;28;20071;-69
2022/10/05 15:03:28;;;;;;;5.03;1.70;;;;;;;;;;5087453;28;20048;-71
2022/10/05 15:06:00;;;;;;;4.83;1.23;;;;;;;;;;5087146;28;20044;-67
2022/10/05 15:09:01;;;;;;;6.85;1.80;;;;;;;;;;5082609;28;20839;-68
2022/10/05 15:11:46;;;;;;;8.50;2.03;;;;;;;;;;5089350;28;20048;-64
2022/10/05 15:14:18;;;;;;;2.78;1.38;;;;;;;;;;5084677;28;20048;-68
2022/10/05 15:16:44;;;;;;;8.35;1.63;;;;;;;;;;5088260;28;20086;-68
2022/10/05 15:19:14;;;;;;;6.70;1.80;;;;;;;;;;5085855;28;20093;-68
2022/10/05 15:22:02;;;;;;;5.35;1.50;;;;;;;;;;5083114;28;20493;-69
2022/10/05 15:24:51;;;;;;;4.57;1.58;;;;;;;;;;5086374;28;20494;-68
2022/10/05 15:27:25;;;;;;;4.43;1.30;;;;;;;;;;5088899;28;20044;-67
2022/10/05 15:30:08;;;;;;;4.75;1.70;;;;;;;;;;5084010;28;20047;-71
2022/10/05 15:32:54;;;;;;;7.38;1.55;;;;;;;;;;5080447;28;20219;-73
2022/10/05 15:35:40;;;;;;;8.05;1.40;;;;;;;;;;5088620;28;20040;-67
2022/10/05 15:38:23;;;;;;;6.35;1.40;;;;;;;;;;5085697;28;20048;-66
2022/10/05 15:41:09;;;;;;;11.43;1.50;;;;;;;;;;5090055;28;20048;-71
2022/10/05 15:43:49;;;;;;;5.20;1.40;;;;;;;;;;5078934;28;20051;-65
2022/10/05 15:46:48;;;;;;;5.63;1.45;;;;;;;;;;5089541;28;20134;-69
2022/10/05 15:49:22;;;;;;;6.10;1.70;;;;;;;;;;5083709;28;20040;-65
2022/10/05 15:52:16;;;;;;;6.95;1.45;;;;;;;;;;5087465;28;20047;-65
2022/10/05 15:55:13;;;;;;;5.10;1.33;;;;;;;;;;5085324;28;20650;-70
2022/10/05 15:57:58;;;;;;;6.70;1.50;;;;;;;;;;5082951;28;20044;-70
2022/10/05 16:00:26;;;;;;;6.03;1.42;;;;;;;;;;5085965;28;20055;-66
2022/10/05 16:03:11;;;;;;;6.07;2.00;;;;;;;;;;5081913;28;20071;-67
2022/10/05 16:08:55;;;;;;;3.88;1.27;;;;;;;;;;5081317;28;20311;-67
2022/10/05 16:11:43;;;;;;;7.05;1.40;;;;;;;;;;5080631;28;20044;-64
2022/10/05 16:14:17;;;;;;;9.70;1.60;;;;;;;;;;5079912;28;20079;-68